createdAt,value
2019-03-31T00:01:07.983Z,34.33
2019-03-31T00:03:28.044Z,34.50
2019-03-31T00:05:56.653Z,34.53
2019-03-31T00:08:25.155Z,35.63
2019-03-31T00:10:53.601Z,35.00
2019-03-31T00:13:22.081Z,35.67
2019-03-31T00:15:50.555Z,35.03
2019-03-31T00:18:19.062Z,37.00
2019-03-31T00:20:47.522Z,34.30
2019-03-31T00:23:16.130Z,36.30
2019-03-31T00:25:46.227Z,35.33
2019-03-31T00:28:14.731Z,35.00
2019-03-31T00:30:43.279Z,36.63
2019-03-31T00:33:11.756Z,34.90
2019-03-31T00:35:40.499Z,37.07
2019-03-31T00:38:09.166Z,37.50
2019-03-31T00:40:37.624Z,34.70
2019-03-31T00:43:06.123Z,35.30
2019-03-31T00:45:34.838Z,35.03
2019-03-31T00:48:03.383Z,35.90
2019-03-31T00:50:31.877Z,33.03
2019-03-31T00:53:00.352Z,33.03
2019-03-31T00:55:28.899Z,33.73
2019-03-31T00:57:57.362Z,34.07
2019-03-31T01:00:29.888Z,33.97
2019-03-31T01:02:59.000Z,33.27
2019-03-31T01:05:27.466Z,33.23
2019-03-31T01:07:56.273Z,31.07
2019-03-31T01:10:25.509Z,30.90
2019-03-31T01:12:54.136Z,32.40
2019-03-31T01:15:23.737Z,30.03
2019-03-31T01:17:52.373Z,31.07
2019-03-31T01:20:20.886Z,31.33
2019-03-31T01:22:49.670Z,33.83
2019-03-31T01:25:18.508Z,30.53
2019-03-31T01:27:47.007Z,31.90
2019-03-31T01:30:16.314Z,32.60
2019-03-31T01:32:45.071Z,32.40
2019-03-31T01:35:13.753Z,30.73
2019-03-31T01:37:42.232Z,31.00
2019-03-31T01:40:10.741Z,30.07
2019-03-31T01:42:39.304Z,32.17
2019-03-31T01:45:08.208Z,31.10
2019-03-31T01:47:36.767Z,29.50
2019-03-31T01:50:08.502Z,29.47
2019-03-31T01:52:36.982Z,28.80
2019-03-31T01:55:08.528Z,28.90
2019-03-31T01:57:37.096Z,29.77
2019-03-31T02:00:11.494Z,27.67
2019-03-31T02:02:39.998Z,29.30
2019-03-31T02:05:08.624Z,28.60
2019-03-31T02:07:37.182Z,26.97
2019-03-31T02:10:06.729Z,26.83
2019-03-31T02:12:35.252Z,28.00
2019-03-31T02:15:05.922Z,27.47
2019-03-31T02:17:34.443Z,25.43
2019-03-31T02:20:02.911Z,28.90
2019-03-31T02:22:31.394Z,26.50
2019-03-31T02:24:59.851Z,27.73
2019-03-31T02:27:28.321Z,27.40
2019-03-31T02:29:56.787Z,28.90
2019-03-31T02:32:25.325Z,29.20
2019-03-31T02:34:53.945Z,27.90
2019-03-31T02:37:22.425Z,28.70
2019-03-31T02:39:50.895Z,30.00
2019-03-31T02:42:19.342Z,31.10
2019-03-31T02:44:47.861Z,28.17
2019-03-31T02:47:16.307Z,27.20
2019-03-31T02:49:44.822Z,30.27
2019-03-31T02:52:13.302Z,24.60
2019-03-31T02:54:41.890Z,27.33
2019-03-31T02:57:10.651Z,31.43
2019-03-31T02:59:39.513Z,32.37
2019-03-31T03:02:09.526Z,26.60
2019-03-31T03:04:39.595Z,28.00
2019-03-31T03:07:08.622Z,26.33
2019-03-31T03:09:37.778Z,27.33
2019-03-31T03:12:09.249Z,32.57
2019-03-31T03:14:38.868Z,32.67
2019-03-31T03:17:07.328Z,29.13
2019-03-31T03:19:35.862Z,31.57
2019-03-31T03:22:04.299Z,31.80
2019-03-31T03:24:32.801Z,26.93
2019-03-31T03:27:01.258Z,24.83
2019-03-31T03:29:29.739Z,30.57
2019-03-31T03:31:58.199Z,31.00
2019-03-31T03:34:26.670Z,29.60
2019-03-31T03:36:55.115Z,30.83
2019-03-31T03:39:23.753Z,35.27
2019-03-31T03:41:52.207Z,26.90
2019-03-31T03:44:20.698Z,30.50
2019-03-31T03:46:49.141Z,27.27
2019-03-31T03:49:17.783Z,29.17
2019-03-31T03:51:46.300Z,29.30
2019-03-31T03:54:15.033Z,33.77
2019-03-31T03:56:43.503Z,29.30
2019-03-31T03:59:11.977Z,32.70
2019-03-31T04:01:40.456Z,29.90
2019-03-31T04:04:08.945Z,30.87
2019-03-31T04:06:37.383Z,32.17
2019-03-31T04:09:06.881Z,31.40
2019-03-31T04:11:35.417Z,37.30
2019-03-31T04:14:04.042Z,34.07
2019-03-31T04:16:32.535Z,33.90
2019-03-31T04:19:01.065Z,25.87
2019-03-31T04:21:29.542Z,35.03
2019-03-31T04:23:58.179Z,31.07
2019-03-31T04:26:26.701Z,30.93
2019-03-31T04:28:55.255Z,33.97
2019-03-31T04:31:23.778Z,31.60
2019-03-31T04:33:53.154Z,37.87
2019-03-31T04:36:21.764Z,32.10
2019-03-31T04:38:50.243Z,29.93
2019-03-31T04:41:18.716Z,29.63
2019-03-31T04:43:47.275Z,35.63
2019-03-31T04:46:15.813Z,36.87
2019-03-31T04:48:44.358Z,35.23
2019-03-31T04:51:12.849Z,33.80
2019-03-31T04:53:41.319Z,33.33
2019-03-31T04:56:09.847Z,36.80
2019-03-31T04:58:38.378Z,39.47
2019-03-31T05:01:06.839Z,37.60
2019-03-31T05:03:35.310Z,36.10
2019-03-31T05:06:03.775Z,36.27
2019-03-31T05:08:32.278Z,37.67
2019-03-31T05:11:00.722Z,38.33
2019-03-31T05:13:29.214Z,33.87
2019-03-31T05:15:57.648Z,34.70
2019-03-31T05:18:26.222Z,36.93
2019-03-31T05:20:54.676Z,38.60
2019-03-31T05:23:23.185Z,41.27
2019-03-31T05:25:51.643Z,34.70
2019-03-31T05:28:20.159Z,40.27
2019-03-31T05:30:48.601Z,41.27
2019-03-31T05:33:17.125Z,40.27
2019-03-31T05:35:45.718Z,40.13
2019-03-31T05:38:14.211Z,40.70
2019-03-31T05:40:42.694Z,41.47
2019-03-31T05:43:11.201Z,43.50
2019-03-31T05:45:39.673Z,41.70
2019-03-31T05:48:08.145Z,44.40
2019-03-31T05:50:36.614Z,42.00
2019-03-31T05:53:05.156Z,43.70
2019-03-31T05:55:33.600Z,43.93
2019-03-31T05:58:02.090Z,43.23
2019-03-31T06:00:36.323Z,45.50
2019-03-31T06:03:04.903Z,45.30
2019-03-31T06:05:33.364Z,44.23
2019-03-31T06:08:01.827Z,45.20
2019-03-31T06:10:30.294Z,43.90
2019-03-31T06:12:58.827Z,45.07
2019-03-31T06:15:27.268Z,43.87
2019-03-31T06:17:55.751Z,44.60
2019-03-31T06:20:24.191Z,43.50
2019-03-31T06:22:52.676Z,42.50
2019-03-31T06:25:21.138Z,40.10
2019-03-31T06:27:49.600Z,39.83
2019-03-31T06:30:18.111Z,35.07
2019-03-31T06:32:46.599Z,34.63
2019-03-31T06:35:15.047Z,38.00
2019-03-31T06:37:43.825Z,35.27
2019-03-31T06:40:12.557Z,32.30
2019-03-31T06:42:41.059Z,31.20
2019-03-31T06:45:09.676Z,32.23
2019-03-31T06:47:38.230Z,30.27
2019-03-31T06:50:08.273Z,32.73
2019-03-31T06:52:36.836Z,31.80
2019-03-31T06:55:07.179Z,29.73
2019-03-31T06:57:35.660Z,31.23
2019-03-31T07:00:06.063Z,31.80
2019-03-31T07:02:34.717Z,31.77
2019-03-31T07:05:04.454Z,30.83
2019-03-31T07:07:32.940Z,30.70
2019-03-31T07:10:01.409Z,31.07
2019-03-31T07:12:30.234Z,34.23
2019-03-31T07:14:58.726Z,32.03
2019-03-31T07:17:27.264Z,32.10
2019-03-31T07:19:55.734Z,31.57
2019-03-31T07:22:24.562Z,33.00
2019-03-31T07:24:53.066Z,31.50
2019-03-31T07:27:21.526Z,31.27
2019-03-31T07:29:50.008Z,30.97
2019-03-31T07:32:18.503Z,29.00
2019-03-31T07:34:46.989Z,28.77
2019-03-31T07:37:15.502Z,29.73
2019-03-31T07:39:46.025Z,30.00
2019-03-31T07:42:14.198Z,27.83
2019-03-31T07:44:42.665Z,30.33
2019-03-31T07:47:11.210Z,26.87
2019-03-31T07:49:39.912Z,25.43
2019-03-31T07:52:08.403Z,25.23
2019-03-31T07:54:36.866Z,25.67
2019-03-31T07:57:06.981Z,28.00
2019-03-31T07:59:35.693Z,24.40
2019-03-31T08:02:04.267Z,18.27
2019-03-31T08:04:32.717Z,15.90
2019-03-31T08:07:01.199Z,16.73
2019-03-31T08:09:29.661Z,16.60
2019-03-31T08:11:58.153Z,15.50
2019-03-31T08:14:26.584Z,16.30
2019-03-31T08:16:55.065Z,15.13
2019-03-31T08:19:23.505Z,17.47
2019-03-31T08:21:51.996Z,17.10
2019-03-31T08:24:20.447Z,16.77
2019-03-31T08:26:48.926Z,15.80
2019-03-31T08:29:17.511Z,18.47
2019-03-31T08:31:45.995Z,16.97
2019-03-31T08:34:14.432Z,19.70
2019-03-31T08:36:42.950Z,18.40
2019-03-31T08:39:11.488Z,17.20
2019-03-31T08:41:39.980Z,16.47
2019-03-31T08:44:08.423Z,13.40
2019-03-31T08:46:36.935Z,13.43
2019-03-31T08:49:05.380Z,13.03
2019-03-31T08:51:33.899Z,13.40
2019-03-31T08:54:02.338Z,13.40
2019-03-31T08:56:30.835Z,13.80
2019-03-31T08:58:59.277Z,14.73
2019-03-31T09:01:27.808Z,13.87
2019-03-31T09:03:56.280Z,16.30
2019-03-31T09:06:24.762Z,16.33
2019-03-31T09:08:53.261Z,18.33
2019-03-31T09:11:23.441Z,16.83
2019-03-31T09:13:51.960Z,16.53
2019-03-31T09:16:20.487Z,14.13
2019-03-31T09:18:48.942Z,15.97
2019-03-31T09:21:17.487Z,16.40
2019-03-31T09:23:45.931Z,15.33
2019-03-31T09:26:14.446Z,13.80
2019-03-31T09:28:42.914Z,12.67
2019-03-31T09:31:11.417Z,14.10
2019-03-31T09:33:39.931Z,11.93
2019-03-31T09:36:15.978Z,11.77
2019-03-31T09:38:38.645Z,11.37
2019-03-31T09:41:07.401Z,11.80
2019-03-31T09:43:35.867Z,11.37
2019-03-31T09:46:04.578Z,10.73
2019-03-31T09:48:33.025Z,11.40
2019-03-31T09:51:01.535Z,9.83
2019-03-31T09:53:29.978Z,10.07
2019-03-31T09:55:58.496Z,10.90
2019-03-31T09:58:27.023Z,9.43
2019-03-31T10:00:56.376Z,10.47
2019-03-31T10:03:24.903Z,9.60
2019-03-31T10:05:53.397Z,9.43
2019-03-31T10:08:22.439Z,9.63
2019-03-31T10:10:50.969Z,8.47
2019-03-31T10:13:19.534Z,9.73
2019-03-31T10:15:47.990Z,8.90
2019-03-31T10:18:18.099Z,7.00
2019-03-31T10:20:46.809Z,8.10
2019-03-31T10:23:15.267Z,8.20
2019-03-31T10:25:43.728Z,8.60
2019-03-31T10:28:12.201Z,7.83
2019-03-31T10:30:40.822Z,6.23
2019-03-31T10:33:09.379Z,7.00
2019-03-31T10:35:37.967Z,5.80
2019-03-31T10:38:06.974Z,5.57
2019-03-31T10:40:35.482Z,5.03
2019-03-31T10:43:04.012Z,4.90
2019-03-31T10:45:32.486Z,5.60
2019-03-31T10:48:00.936Z,5.70
2019-03-31T10:50:29.459Z,7.23
2019-03-31T10:52:57.937Z,6.90
2019-03-31T10:55:26.792Z,9.50
2019-03-31T10:57:55.257Z,6.47
2019-03-31T11:00:31.626Z,5.90
2019-03-31T11:03:00.134Z,5.77
2019-03-31T11:05:28.567Z,6.40
2019-03-31T11:07:57.352Z,5.77
2019-03-31T11:10:25.800Z,6.83
2019-03-31T11:12:54.304Z,6.63
2019-03-31T11:15:22.771Z,6.23
2019-03-31T11:17:51.262Z,7.47
2019-03-31T11:20:19.714Z,6.50
2019-03-31T11:22:55.230Z,5.80
2019-03-31T11:25:27.637Z,5.50
2019-03-31T11:27:53.943Z,5.80
2019-03-31T11:30:22.556Z,6.10
2019-03-31T11:32:51.024Z,7.20
2019-03-31T11:35:19.510Z,5.30
2019-03-31T11:37:47.992Z,6.30
2019-03-31T11:40:16.548Z,5.53
2019-03-31T11:42:45.041Z,5.70
2019-03-31T11:45:13.736Z,5.77
2019-03-31T11:47:42.294Z,4.97
2019-03-31T11:50:11.259Z,4.70
2019-03-31T11:52:39.720Z,5.03
2019-03-31T11:55:08.754Z,3.97
2019-03-31T11:57:37.290Z,4.50
2019-03-31T12:00:09.410Z,5.10
2019-03-31T12:02:43.215Z,5.30
2019-03-31T12:05:11.745Z,5.00
2019-03-31T12:07:47.169Z,5.13
2019-03-31T12:10:13.949Z,4.90
2019-03-31T12:12:42.529Z,5.23
2019-03-31T12:15:11.008Z,4.80
2019-03-31T12:17:39.477Z,4.70
2019-03-31T12:20:09.234Z,6.27
2019-03-31T12:22:38.037Z,5.30
2019-03-31T12:25:08.128Z,4.97
2019-03-31T12:27:37.595Z,4.77
2019-03-31T12:30:08.689Z,3.73
2019-03-31T12:32:38.587Z,5.17
2019-03-31T12:35:07.889Z,4.00
2019-03-31T12:37:42.621Z,3.33
2019-03-31T12:40:08.972Z,3.57
2019-03-31T12:42:37.473Z,2.60
2019-03-31T12:45:06.563Z,2.77
2019-03-31T12:47:35.003Z,3.10
2019-03-31T12:50:04.661Z,2.50
2019-03-31T12:52:46.079Z,2.47
2019-03-31T12:55:03.313Z,2.37
2019-03-31T12:57:31.766Z,2.10
2019-03-31T13:00:00.408Z,2.17
2019-03-31T13:02:28.831Z,1.97
2019-03-31T13:04:57.411Z,1.80
2019-03-31T13:07:25.976Z,1.90
2019-03-31T13:09:54.506Z,2.00
2019-03-31T13:12:22.944Z,2.00
2019-03-31T13:14:51.413Z,2.47
2019-03-31T13:17:19.860Z,2.17
2019-03-31T13:19:48.355Z,2.10
2019-03-31T13:22:16.807Z,2.10
2019-03-31T13:24:47.141Z,2.10
2019-03-31T13:27:18.516Z,2.10
2019-03-31T13:29:47.004Z,1.90
2019-03-31T13:32:15.438Z,2.20
2019-03-31T13:34:44.023Z,2.70
2019-03-31T13:37:12.787Z,2.23
2019-03-31T13:39:41.321Z,1.83
2019-03-31T13:42:09.774Z,2.57
2019-03-31T13:44:38.313Z,2.20
2019-03-31T13:47:06.761Z,2.40
2019-03-31T13:49:35.246Z,2.23
2019-03-31T13:52:03.695Z,2.03
2019-03-31T13:54:32.516Z,2.70
2019-03-31T13:57:00.992Z,2.10
2019-03-31T13:59:30.598Z,1.83
2019-03-31T14:02:00.344Z,1.87
2019-03-31T14:04:29.082Z,1.67
2019-03-31T14:06:57.509Z,2.93
2019-03-31T14:09:25.999Z,2.30
2019-03-31T14:11:54.451Z,2.20
2019-03-31T14:14:22.969Z,1.93
2019-03-31T14:16:51.470Z,2.17
2019-03-31T14:19:19.957Z,2.00
2019-03-31T14:21:48.480Z,3.47
2019-03-31T14:24:17.199Z,1.77
2019-03-31T14:26:47.701Z,1.80
2019-03-31T14:29:15.879Z,1.90
2019-03-31T14:31:44.312Z,2.17
2019-03-31T14:34:12.883Z,2.23
2019-03-31T14:36:41.368Z,2.10
2019-03-31T14:39:10.101Z,2.17
2019-03-31T14:41:38.565Z,2.30
2019-03-31T14:44:07.079Z,1.87
2019-03-31T14:46:35.608Z,2.10
2019-03-31T14:49:04.153Z,2.10
2019-03-31T14:51:32.590Z,1.60
2019-03-31T14:54:01.100Z,2.30
2019-03-31T14:56:29.861Z,1.63
2019-03-31T14:58:58.342Z,1.87
2019-03-31T15:01:26.827Z,2.03
2019-03-31T15:03:55.314Z,1.80
2019-03-31T15:06:23.757Z,1.80
2019-03-31T15:08:54.586Z,1.70
2019-03-31T15:11:22.438Z,2.00
2019-03-31T15:13:50.889Z,1.90
2019-03-31T15:16:19.354Z,1.60
2019-03-31T15:18:47.838Z,1.80
2019-03-31T15:21:16.315Z,1.70
2019-03-31T15:23:44.786Z,1.93
2019-03-31T15:26:13.284Z,2.40
2019-03-31T15:28:45.270Z,1.80
2019-03-31T15:31:12.283Z,2.20
2019-03-31T15:33:40.796Z,2.03
2019-03-31T15:36:09.237Z,2.27
2019-03-31T15:38:37.752Z,2.17
2019-03-31T15:41:20.367Z,2.30
2019-03-31T15:43:36.388Z,1.50
2019-03-31T15:46:04.863Z,2.13
2019-03-31T15:48:33.365Z,1.70
2019-03-31T15:51:01.815Z,2.40
2019-03-31T15:53:30.285Z,2.33
2019-03-31T15:55:58.739Z,2.33
2019-03-31T15:58:27.203Z,1.73
2019-03-31T16:00:55.672Z,1.80
2019-03-31T16:03:24.131Z,1.50
2019-03-31T16:05:52.578Z,1.57
2019-03-31T16:08:21.047Z,1.53
2019-03-31T16:10:49.495Z,1.93
2019-03-31T16:13:17.962Z,1.50
2019-03-31T16:15:46.408Z,1.53
2019-03-31T16:18:14.901Z,1.10
2019-03-31T16:20:43.431Z,1.47
2019-03-31T16:23:11.912Z,1.13
2019-03-31T16:25:45.081Z,1.60
2019-03-31T16:28:13.533Z,1.10
2019-03-31T16:30:42.273Z,2.03
2019-03-31T16:33:10.812Z,1.57
2019-03-31T16:35:39.353Z,1.73
2019-03-31T16:38:07.922Z,1.70
2019-03-31T16:40:36.376Z,1.40
2019-03-31T16:43:04.855Z,1.37
2019-03-31T16:45:33.327Z,1.67
2019-03-31T16:48:01.903Z,1.50
2019-03-31T16:50:30.634Z,1.33
2019-03-31T16:52:59.159Z,1.80
2019-03-31T16:55:27.621Z,1.70
2019-03-31T16:57:56.212Z,2.07
2019-03-31T17:00:24.660Z,1.50
2019-03-31T17:02:53.827Z,1.60
2019-03-31T17:05:22.765Z,1.97
2019-03-31T17:07:51.254Z,2.00
2019-03-31T17:10:19.751Z,1.30
2019-03-31T17:12:48.238Z,1.57
2019-03-31T17:15:16.841Z,1.30
2019-03-31T17:17:45.294Z,1.73
2019-03-31T17:20:14.207Z,1.60
2019-03-31T17:22:43.019Z,1.60
2019-03-31T17:25:11.591Z,1.47
2019-03-31T17:27:40.116Z,1.53
2019-03-31T17:30:09.338Z,2.00
2019-03-31T17:32:37.870Z,2.07
2019-03-31T17:35:06.570Z,1.93
2019-03-31T17:37:35.105Z,1.80
2019-03-31T17:40:06.821Z,1.70
2019-03-31T17:42:35.703Z,2.03
2019-03-31T17:45:06.192Z,1.93
2019-03-31T17:47:34.650Z,2.10
2019-03-31T17:50:03.420Z,2.10
2019-03-31T17:52:31.940Z,2.03
2019-03-31T17:55:00.410Z,1.90
2019-03-31T17:57:28.946Z,1.80
2019-03-31T17:59:57.434Z,2.20
2019-03-31T18:02:25.927Z,1.73
2019-03-31T18:04:54.643Z,1.97
2019-03-31T18:07:23.130Z,2.23
2019-03-31T18:09:51.589Z,2.40
2019-03-31T18:12:20.362Z,2.50
2019-03-31T18:14:48.806Z,2.53
2019-03-31T18:17:17.422Z,3.10
2019-03-31T18:19:45.867Z,2.77
2019-03-31T18:22:16.667Z,2.00
2019-03-31T18:24:44.470Z,2.50
2019-03-31T18:27:13.330Z,2.10
2019-03-31T18:29:44.625Z,2.10
2019-03-31T18:32:13.156Z,2.80
2019-03-31T18:34:41.612Z,1.90
2019-03-31T18:37:10.212Z,1.77
2019-03-31T18:39:38.655Z,2.87
2019-03-31T18:42:07.207Z,1.83
2019-03-31T18:44:35.773Z,2.20
2019-03-31T18:47:04.316Z,2.50
2019-03-31T18:49:32.826Z,1.80
2019-03-31T18:52:01.269Z,2.03
2019-03-31T18:54:34.386Z,2.20
2019-03-31T18:57:19.697Z,2.37
2019-03-31T18:59:53.128Z,1.87
2019-03-31T19:02:25.670Z,2.13
2019-03-31T19:05:07.641Z,2.27
2019-03-31T19:07:43.437Z,1.87
2019-03-31T19:10:31.734Z,2.93
2019-03-31T19:13:01.902Z,1.90
2019-03-31T19:15:32.197Z,2.70
2019-03-31T19:18:11.453Z,2.43
2019-03-31T19:21:10.498Z,2.13
2019-03-31T19:23:36.031Z,2.03
2019-03-31T19:26:20.130Z,1.80
2019-03-31T19:29:02.340Z,2.20
2019-03-31T19:31:44.436Z,2.00
2019-03-31T19:34:20.820Z,2.40
2019-03-31T19:37:06.895Z,2.10
2019-03-31T19:39:53.023Z,2.40
2019-03-31T19:42:23.149Z,2.30
2019-03-31T19:44:55.685Z,2.20
2019-03-31T19:47:31.674Z,2.43
2019-03-31T19:50:13.769Z,2.03
2019-03-31T19:52:46.633Z,2.00
2019-03-31T19:55:16.743Z,3.03
2019-03-31T19:57:46.844Z,2.70
2019-03-31T20:00:19.900Z,2.67
2019-03-31T20:03:07.921Z,2.60
2019-03-31T20:05:43.612Z,2.73
2019-03-31T20:08:13.735Z,2.57
2019-03-31T20:10:49.487Z,2.37
2019-03-31T20:13:37.361Z,2.17
2019-03-31T20:16:23.500Z,2.53
2019-03-31T20:19:02.458Z,2.90
2019-03-31T20:21:32.728Z,2.30
2019-03-31T20:24:08.611Z,1.83
2019-03-31T20:26:53.525Z,2.50
2019-03-31T20:29:29.055Z,2.43
2019-03-31T20:32:02.190Z,2.77
2019-03-31T20:34:48.520Z,2.53
2019-03-31T20:37:30.745Z,2.20
2019-03-31T20:40:15.776Z,1.80
2019-03-31T20:43:03.655Z,2.50
2019-03-31T20:45:32.172Z,2.40
2019-03-31T20:48:00.616Z,2.20
2019-03-31T20:50:29.178Z,2.77
2019-03-31T20:52:57.607Z,2.63
2019-03-31T20:55:26.122Z,2.50
2019-03-31T20:57:54.551Z,1.80
2019-03-31T21:00:23.078Z,2.10
2019-03-31T21:02:51.513Z,2.10
2019-03-31T21:05:20.014Z,2.50
2019-03-31T21:07:48.437Z,2.23
2019-03-31T21:10:16.977Z,2.67
2019-03-31T21:12:45.451Z,2.40
2019-03-31T21:15:13.937Z,2.20
2019-03-31T21:17:42.398Z,2.40
2019-03-31T21:20:11.013Z,2.07
2019-03-31T21:22:39.437Z,2.03
2019-03-31T21:25:08.092Z,2.50
2019-03-31T21:27:36.522Z,2.30
2019-03-31T21:30:06.438Z,2.10
2019-03-31T21:32:34.873Z,2.40
2019-03-31T21:35:03.925Z,2.27
2019-03-31T21:37:32.353Z,2.30
2019-03-31T21:40:00.853Z,2.27
2019-03-31T21:42:29.282Z,2.07
2019-03-31T21:44:57.745Z,2.10
2019-03-31T21:47:26.185Z,1.70
2019-03-31T21:49:54.708Z,2.27
2019-03-31T21:52:23.187Z,1.90
2019-03-31T21:54:51.637Z,2.77
2019-03-31T21:57:20.097Z,1.90
2019-03-31T21:59:48.563Z,2.13
2019-03-31T22:02:17.073Z,1.37
2019-03-31T22:04:45.854Z,1.80
2019-03-31T22:07:14.283Z,2.07
2019-03-31T22:09:42.805Z,2.30
2019-03-31T22:12:11.276Z,2.00
2019-03-31T22:14:39.846Z,2.00
2019-03-31T22:17:08.293Z,2.10
2019-03-31T22:19:36.769Z,1.60
2019-03-31T22:22:05.204Z,2.07
2019-03-31T22:24:33.687Z,2.00
2019-03-31T22:27:02.103Z,1.90
2019-03-31T22:29:30.564Z,1.70
2019-03-31T22:31:58.985Z,2.10
2019-03-31T22:34:27.476Z,2.30
2019-03-31T22:36:55.929Z,1.90
2019-03-31T22:39:24.398Z,2.17
2019-03-31T22:41:52.923Z,2.00
2019-03-31T22:44:21.382Z,1.97
2019-03-31T22:46:54.370Z,1.97
2019-03-31T22:49:20.265Z,2.50
2019-03-31T22:51:48.735Z,1.90
2019-03-31T22:54:17.234Z,1.90
2019-03-31T22:56:45.696Z,2.33
2019-03-31T22:59:14.167Z,2.30
2019-03-31T23:01:42.606Z,2.20
2019-03-31T23:04:11.133Z,2.40
2019-03-31T23:06:39.574Z,2.13
2019-03-31T23:09:08.217Z,2.60
2019-03-31T23:11:36.683Z,2.80
2019-03-31T23:14:05.193Z,2.80
2019-03-31T23:16:33.659Z,2.83
2019-03-31T23:19:02.215Z,2.40
2019-03-31T23:21:30.678Z,2.97
2019-03-31T23:23:59.143Z,2.67
2019-03-31T23:26:27.565Z,2.57
2019-03-31T23:28:56.089Z,2.60
2019-03-31T23:31:24.528Z,2.47
2019-03-31T23:33:52.992Z,2.50
2019-03-31T23:36:21.409Z,2.20
2019-03-31T23:38:49.914Z,3.10
2019-03-31T23:41:18.355Z,2.30
2019-03-31T23:43:46.844Z,2.20
2019-03-31T23:46:15.271Z,3.10
2019-03-31T23:48:43.777Z,3.10
2019-03-31T23:51:12.245Z,3.53
2019-03-31T23:53:40.699Z,3.60
2019-03-31T23:56:09.149Z,3.53
2019-03-31T23:58:37.604Z,2.90
